createdAt,value
2019-05-07T00:01:02.958Z,86.30
2019-05-07T00:03:32.808Z,87.00
2019-05-07T00:06:02.815Z,86.00
2019-05-07T00:08:32.283Z,85.50
2019-05-07T00:11:02.317Z,84.90
2019-05-07T00:13:33.130Z,84.80
2019-05-07T00:16:02.505Z,85.00
2019-05-07T00:18:32.194Z,84.40
2019-05-07T00:21:03.378Z,84.10
2019-05-07T00:23:32.503Z,84.80
2019-05-07T00:26:02.509Z,86.50
2019-05-07T00:28:32.460Z,87.10
2019-05-07T00:31:02.915Z,87.50
2019-05-07T00:33:32.474Z,87.40
2019-05-07T00:36:02.963Z,87.30
2019-05-07T00:38:33.391Z,88.10
2019-05-07T00:41:06.530Z,88.90
2019-05-07T00:43:36.485Z,89.20
2019-05-07T00:46:09.593Z,89.60
2019-05-07T00:48:38.411Z,89.90
2019-05-07T00:51:24.211Z,90.10
2019-05-07T00:53:53.365Z,89.00
2019-05-07T00:56:22.469Z,88.40
2019-05-07T00:58:52.713Z,88.30
2019-05-07T01:01:22.697Z,87.60
2019-05-07T01:03:53.380Z,86.70
2019-05-07T01:06:25.988Z,86.50
2019-05-07T01:08:53.055Z,86.90
2019-05-07T01:11:22.665Z,87.10
2019-05-07T01:13:52.137Z,87.20
2019-05-07T01:16:22.195Z,86.10
2019-05-07T01:18:53.583Z,85.80
2019-05-07T01:21:22.741Z,85.70
2019-05-07T01:23:52.290Z,85.60
2019-05-07T01:26:21.892Z,86.20
2019-05-07T01:29:02.996Z,87.20
2019-05-07T01:31:34.150Z,86.90
2019-05-07T01:34:13.579Z,87.10
2019-05-07T01:36:42.774Z,87.70
2019-05-07T01:39:13.072Z,87.70
2019-05-07T01:41:42.072Z,87.50
2019-05-07T01:44:12.838Z,87.40
2019-05-07T01:46:42.269Z,87.20
2019-05-07T01:49:12.516Z,87.10
2019-05-07T01:51:43.642Z,86.90
2019-05-07T01:54:12.996Z,87.20
2019-05-07T01:56:42.830Z,86.60
2019-05-07T01:59:12.136Z,86.30
2019-05-07T02:01:42.931Z,86.40
2019-05-07T02:04:13.549Z,86.30
2019-05-07T02:07:02.632Z,86.70
2019-05-07T02:09:45.625Z,87.00
2019-05-07T02:12:15.979Z,87.50
2019-05-07T02:14:44.881Z,87.40
2019-05-07T02:17:13.811Z,87.90
2019-05-07T02:19:42.636Z,87.30
2019-05-07T02:22:14.388Z,86.90
2019-05-07T02:24:43.495Z,86.60
2019-05-07T02:27:12.756Z,86.10
2019-05-07T02:29:43.288Z,86.30
2019-05-07T02:32:13.374Z,86.60
2019-05-07T02:34:44.247Z,86.80
2019-05-07T02:40:49.625Z,90.10
2019-05-07T02:43:18.634Z,90.70
2019-05-07T02:45:49.249Z,91.10
2019-05-07T02:48:23.703Z,91.20
2019-05-07T02:51:08.525Z,91.20
2019-05-07T02:53:53.622Z,90.80
2019-05-07T02:56:36.743Z,90.30
2019-05-07T02:59:14.795Z,90.30
2019-05-07T03:02:07.216Z,90.40
2019-05-07T03:04:53.172Z,91.20
2019-05-07T03:13:24.539Z,90.70
2019-05-07T03:16:13.448Z,90.60
2019-05-07T03:18:53.151Z,90.70
2019-05-07T03:21:19.346Z,90.90
2019-05-07T03:24:09.453Z,90.90
2019-05-07T03:29:28.655Z,90.10
2019-05-07T03:32:40.707Z,88.60
2019-05-07T03:37:58.223Z,90.00
2019-05-07T03:56:52.804Z,91.30
2019-05-07T03:59:23.084Z,90.90
2019-05-07T04:33:03.461Z,90.60
2019-05-07T04:41:24.902Z,90.00
2019-05-07T04:43:54.309Z,89.60
2019-05-07T04:46:24.439Z,89.90
2019-05-07T04:48:55.016Z,90.00
2019-05-07T04:51:28.235Z,90.00
2019-05-07T04:54:03.269Z,89.20
2019-05-07T04:56:33.469Z,89.60
2019-05-07T04:59:03.653Z,89.50
2019-05-07T05:01:37.308Z,89.60
2019-05-07T05:04:24.385Z,89.50
2019-05-07T05:06:38.361Z,89.50
2019-05-07T05:30:12.472Z,90.70
2019-05-07T05:32:45.296Z,90.50
2019-05-07T05:35:12.617Z,91.50
2019-05-07T05:37:42.885Z,91.40
2019-05-07T05:40:12.690Z,91.30
2019-05-07T05:42:53.120Z,91.40
2019-05-07T05:45:39.507Z,91.20
2019-05-07T05:48:08.755Z,91.00
2019-05-07T05:50:42.160Z,91.30
2019-05-07T05:53:29.568Z,91.70
2019-05-07T05:55:59.791Z,92.00
2019-05-07T05:58:35.923Z,92.00
2019-05-07T06:01:06.757Z,91.70
2019-05-07T06:03:37.198Z,91.40
2019-05-07T06:06:12.664Z,91.70
2019-05-07T06:08:59.222Z,91.70
2019-05-07T06:11:29.650Z,92.00
2019-05-07T06:14:08.580Z,91.80
2019-05-07T06:16:38.965Z,92.00
2019-05-07T06:19:12.837Z,91.90
2019-05-07T06:21:53.285Z,92.30
2019-05-07T06:24:33.725Z,92.30
2019-05-07T06:27:04.833Z,92.70
2019-05-07T06:29:33.953Z,92.60
2019-05-07T06:32:04.676Z,92.40
2019-05-07T06:37:16.674Z,92.30
2019-05-07T06:39:53.065Z,91.30
2019-05-07T06:42:29.037Z,90.90
2019-05-07T06:45:02.947Z,91.20
2019-05-07T06:47:31.950Z,91.40
2019-05-07T06:50:03.007Z,91.40
2019-05-07T06:52:31.998Z,91.60
2019-05-07T06:55:03.211Z,91.70
2019-05-07T06:57:33.049Z,91.90
2019-05-07T07:00:03.683Z,91.70
2019-05-07T07:02:34.119Z,92.30
2019-05-07T07:05:04.474Z,92.10
2019-05-07T07:07:38.549Z,91.80
2019-05-07T07:10:24.503Z,91.10
2019-05-07T07:12:53.497Z,90.80
2019-05-07T07:15:23.281Z,91.20
2019-05-07T07:17:52.465Z,91.10
2019-05-07T07:20:32.729Z,91.70
2019-05-07T07:23:11.703Z,91.50
2019-05-07T07:25:54.173Z,91.00
2019-05-07T07:28:42.786Z,90.80
2019-05-07T07:43:06.971Z,88.10
2019-05-07T07:45:54.427Z,87.00
2019-05-07T07:51:34.935Z,85.40
2019-05-07T07:53:55.353Z,84.70
2019-05-07T08:02:42.295Z,83.80
2019-05-07T08:05:12.685Z,83.40
2019-05-07T08:16:42.996Z,81.50
2019-05-07T08:22:19.114Z,78.60
2019-05-07T08:24:56.533Z,76.80
2019-05-07T08:36:29.661Z,75.40
2019-05-07T08:48:32.576Z,69.60
2019-05-07T08:51:04.039Z,69.30
2019-05-07T08:53:35.622Z,69.60
2019-05-07T08:56:04.259Z,69.00
2019-05-07T08:58:33.624Z,66.40
2019-05-07T09:04:13.698Z,65.00
2019-05-07T09:17:37.142Z,62.50
2019-05-07T09:23:31.931Z,59.60
2019-05-07T09:26:02.755Z,59.60
2019-05-07T09:28:35.992Z,57.10
2019-05-07T09:31:13.938Z,56.70
2019-05-07T09:33:47.378Z,56.70
2019-05-07T09:36:22.723Z,54.70
2019-05-07T09:38:56.760Z,54.30
2019-05-07T09:41:27.742Z,50.80
2019-05-07T09:43:57.798Z,52.10
2019-05-07T09:46:28.606Z,49.50
2019-05-07T09:48:57.464Z,49.50
2019-05-07T09:51:26.208Z,50.50
2019-05-07T09:53:56.338Z,52.90
2019-05-07T09:56:38.160Z,50.60
2019-05-07T09:59:06.844Z,49.40
2019-05-07T10:01:35.610Z,49.80
2019-05-07T10:04:04.336Z,52.30
2019-05-07T10:06:33.011Z,54.00
2019-05-07T10:09:02.858Z,52.10
2019-05-07T10:11:39.236Z,51.60
2019-05-07T10:14:12.192Z,50.10
2019-05-07T10:16:44.632Z,51.30
2019-05-07T10:19:13.466Z,50.00
2019-05-07T10:21:42.570Z,53.10
2019-05-07T10:24:12.954Z,51.60
2019-05-07T10:26:42.874Z,52.50
2019-05-07T10:29:12.617Z,51.40
2019-05-07T10:31:42.425Z,52.30
2019-05-07T10:34:12.341Z,51.30
2019-05-07T10:36:42.145Z,52.00
2019-05-07T10:39:12.736Z,53.40
2019-05-07T10:41:42.466Z,53.20
2019-05-07T10:47:01.855Z,55.30
2019-05-07T10:49:31.824Z,53.60
2019-05-07T10:52:02.148Z,55.20
2019-05-07T10:54:30.890Z,54.40
2019-05-07T10:56:59.455Z,55.70
2019-05-07T10:59:28.072Z,54.00
2019-05-07T11:01:58.321Z,52.70
2019-05-07T11:04:39.294Z,52.70
2019-05-07T11:06:57.369Z,51.80
2019-05-07T11:09:26.040Z,50.60
2019-05-07T11:11:54.574Z,49.90
2019-05-07T11:14:23.275Z,51.40
2019-05-07T11:17:09.287Z,52.30
2019-05-07T11:19:37.906Z,52.60
2019-05-07T11:22:06.524Z,54.90
2019-05-07T11:24:35.217Z,55.50
2019-05-07T11:27:04.144Z,55.50
2019-05-07T11:29:33.854Z,55.40
2019-05-07T11:32:03.102Z,56.70
2019-05-07T11:34:33.485Z,58.10
2019-05-07T11:37:02.445Z,59.40
2019-05-07T11:39:33.098Z,59.10
2019-05-07T11:42:21.977Z,59.10
2019-05-07T11:44:54.806Z,59.60
2019-05-07T11:47:26.895Z,60.50
2019-05-07T11:50:14.771Z,60.00
2019-05-07T11:53:00.509Z,57.30
2019-05-07T11:55:29.201Z,57.80
2019-05-07T11:57:57.787Z,57.70
2019-05-07T12:00:37.465Z,58.50
2019-05-07T12:03:06.059Z,56.30
2019-05-07T12:05:34.747Z,54.70
2019-05-07T12:08:03.561Z,56.50
2019-05-07T12:10:32.785Z,53.40
2019-05-07T12:13:02.343Z,51.90
2019-05-07T12:15:32.428Z,52.30
2019-05-07T12:18:03.060Z,54.40
2019-05-07T12:20:32.457Z,53.00
2019-05-07T12:23:02.850Z,53.70
2019-05-07T12:25:32.182Z,55.00
2019-05-07T12:28:02.435Z,54.90
2019-05-07T12:30:33.167Z,56.70
2019-05-07T12:33:19.709Z,55.40
2019-05-07T12:35:48.379Z,54.50
2019-05-07T12:38:16.949Z,55.00
2019-05-07T12:40:45.659Z,55.40
2019-05-07T12:43:14.429Z,54.90
2019-05-07T12:45:43.057Z,52.80
2019-05-07T12:48:14.182Z,53.40
2019-05-07T12:50:43.181Z,53.70
2019-05-07T12:53:22.482Z,52.00
2019-05-07T12:56:02.198Z,50.80
2019-05-07T12:58:32.283Z,50.80
2019-05-07T13:01:02.608Z,48.90
2019-05-07T13:03:38.936Z,48.50
2019-05-07T13:06:07.668Z,48.30
2019-05-07T13:08:36.151Z,49.50
2019-05-07T13:11:04.940Z,51.00
2019-05-07T13:13:33.481Z,50.10
2019-05-07T13:16:02.900Z,49.20
2019-05-07T13:18:32.127Z,51.20
2019-05-07T13:21:02.426Z,51.40
2019-05-07T13:23:31.838Z,51.00
2019-05-07T13:26:02.564Z,51.60
2019-05-07T13:28:30.919Z,53.00
2019-05-07T13:30:59.549Z,52.00
2019-05-07T13:33:29.306Z,51.00
2019-05-07T13:35:57.999Z,51.00
2019-05-07T13:38:37.385Z,52.00
2019-05-07T13:41:16.601Z,52.10
2019-05-07T13:44:02.890Z,52.30
2019-05-07T13:46:33.408Z,51.10
2019-05-07T13:49:02.346Z,50.60
2019-05-07T13:51:33.629Z,51.40
2019-05-07T13:54:02.223Z,52.30
2019-05-07T13:56:32.656Z,52.30
2019-05-07T13:59:04.646Z,53.20
2019-05-07T14:01:33.430Z,53.40
2019-05-07T14:04:04.075Z,53.00
2019-05-07T14:06:38.575Z,52.20
2019-05-07T14:09:11.236Z,51.20
2019-05-07T14:11:41.957Z,51.90
2019-05-07T14:14:12.151Z,51.60
2019-05-07T14:16:42.454Z,51.50
2019-05-07T14:19:12.795Z,52.00
2019-05-07T14:21:42.186Z,51.20
2019-05-07T14:24:14.568Z,50.90
2019-05-07T14:26:42.353Z,50.10
2019-05-07T14:29:11.325Z,51.10
2019-05-07T14:31:39.851Z,51.70
2019-05-07T14:34:12.397Z,49.90
2019-05-07T14:36:47.848Z,50.00
2019-05-07T14:39:16.479Z,50.50
2019-05-07T14:41:45.969Z,51.20
2019-05-07T14:44:16.337Z,51.00
2019-05-07T14:46:50.834Z,51.50
2019-05-07T14:49:15.557Z,49.50
2019-05-07T14:51:44.227Z,49.30
2019-05-07T14:54:12.919Z,47.40
2019-05-07T14:56:42.829Z,48.60
2019-05-07T14:59:12.824Z,49.80
2019-05-07T15:01:42.977Z,52.00
2019-05-07T15:04:12.871Z,51.40
2019-05-07T15:06:41.778Z,50.90
2019-05-07T15:09:12.085Z,51.00
2019-05-07T15:11:42.478Z,51.60
2019-05-07T15:14:12.035Z,50.80
2019-05-07T15:16:42.653Z,52.40
2019-05-07T15:19:12.538Z,52.50
2019-05-07T15:21:42.581Z,51.90
2019-05-07T15:24:14.489Z,52.70
2019-05-07T15:26:43.283Z,51.60
2019-05-07T15:29:13.321Z,51.90
2019-05-07T15:31:55.345Z,50.60
2019-05-07T15:34:24.341Z,49.50
2019-05-07T15:36:53.179Z,50.60
2019-05-07T15:39:22.257Z,49.80
2019-05-07T15:41:51.787Z,51.10
2019-05-07T15:44:20.552Z,51.60
2019-05-07T15:46:49.179Z,51.40
2019-05-07T15:49:18.823Z,51.70
2019-05-07T15:51:49.202Z,53.20
2019-05-07T15:54:21.839Z,51.30
2019-05-07T15:56:52.311Z,51.30
2019-05-07T15:59:28.208Z,50.10
2019-05-07T16:02:02.904Z,50.80
2019-05-07T16:04:32.921Z,50.50
2019-05-07T16:07:05.109Z,51.60
2019-05-07T16:09:44.720Z,51.90
2019-05-07T16:12:14.989Z,50.40
2019-05-07T16:14:44.048Z,50.90
2019-05-07T16:17:16.442Z,51.40
2019-05-07T16:19:44.751Z,51.10
2019-05-07T16:22:15.000Z,50.90
2019-05-07T16:24:43.635Z,51.10
2019-05-07T16:27:12.312Z,51.20
2019-05-07T16:29:42.129Z,52.00
2019-05-07T16:32:10.899Z,52.30
2019-05-07T16:34:39.851Z,51.20
2019-05-07T16:37:09.069Z,52.10
2019-05-07T16:39:37.783Z,51.10
2019-05-07T16:42:06.375Z,51.70
2019-05-07T16:44:36.658Z,52.60
2019-05-07T16:47:05.368Z,50.90
2019-05-07T16:49:33.965Z,49.90
2019-05-07T16:52:02.505Z,50.30
2019-05-07T16:54:31.351Z,49.90
2019-05-07T16:57:17.817Z,50.30
2019-05-07T16:59:46.793Z,51.40
2019-05-07T17:02:17.167Z,51.80
2019-05-07T17:04:56.815Z,51.70
2019-05-07T17:07:25.687Z,50.90
2019-05-07T17:09:54.618Z,50.40
2019-05-07T17:12:23.385Z,50.90
2019-05-07T17:14:52.057Z,51.60
2019-05-07T17:17:22.427Z,51.20
2019-05-07T17:19:53.858Z,51.10
2019-05-07T17:22:22.729Z,51.90
2019-05-07T17:24:56.620Z,51.40
2019-05-07T17:27:25.577Z,51.50
2019-05-07T17:29:58.735Z,51.50
2019-05-07T17:32:27.517Z,51.50
2019-05-07T17:34:56.131Z,51.60
2019-05-07T17:37:25.084Z,52.20
2019-05-07T17:39:53.885Z,52.00
2019-05-07T17:42:23.441Z,51.60
2019-05-07T17:44:52.306Z,52.70
2019-05-07T17:47:21.824Z,52.40
2019-05-07T17:49:52.659Z,52.60
2019-05-07T17:52:22.718Z,52.60
2019-05-07T17:54:52.772Z,53.50
2019-05-07T17:57:23.319Z,53.60
2019-05-07T17:59:52.616Z,53.20
2019-05-07T18:02:42.157Z,54.20
2019-05-07T18:05:11.882Z,53.50
2019-05-07T18:07:42.052Z,54.20
2019-05-07T18:10:12.567Z,55.10
2019-05-07T18:12:42.555Z,55.50
2019-05-07T18:15:12.636Z,54.90
2019-05-07T18:17:42.978Z,55.10
2019-05-07T18:20:12.884Z,55.90
2019-05-07T18:22:41.660Z,55.80
2019-05-07T18:25:12.424Z,55.50
2019-05-07T18:27:42.067Z,56.50
2019-05-07T18:30:14.815Z,57.40
2019-05-07T18:32:45.129Z,57.20
2019-05-07T18:35:14.061Z,57.80
2019-05-07T18:37:46.911Z,56.90
2019-05-07T18:40:15.597Z,57.60
2019-05-07T18:42:44.462Z,57.60
2019-05-07T18:45:13.480Z,57.90
2019-05-07T18:47:44.952Z,58.70
2019-05-07T18:50:15.451Z,57.80
2019-05-07T18:52:44.202Z,59.00
2019-05-07T18:55:13.002Z,59.40
2019-05-07T18:57:42.237Z,59.20
2019-05-07T19:00:17.187Z,58.90
2019-05-07T19:02:45.897Z,58.60
2019-05-07T19:05:14.653Z,59.20
2019-05-07T19:07:43.328Z,58.60
2019-05-07T19:10:12.763Z,58.40
2019-05-07T19:12:42.063Z,59.00
2019-05-07T19:15:12.447Z,58.00
2019-05-07T19:17:42.728Z,59.70
2019-05-07T19:20:12.269Z,58.80
2019-05-07T19:22:42.417Z,59.80
2019-05-07T19:25:11.974Z,60.10
2019-05-07T19:27:40.812Z,60.90
2019-05-07T19:30:12.560Z,61.00
2019-05-07T19:32:42.739Z,60.90
2019-05-07T19:35:12.349Z,60.70
2019-05-07T19:37:42.552Z,61.00
2019-05-07T19:40:12.502Z,62.40
2019-05-07T19:42:42.797Z,61.40
2019-05-07T19:45:12.796Z,62.40
2019-05-07T19:47:42.789Z,63.80
2019-05-07T19:50:12.568Z,62.90
2019-05-07T19:52:42.626Z,62.20
2019-05-07T19:55:11.472Z,62.60
2019-05-07T19:57:42.642Z,63.10
2019-05-07T20:00:12.203Z,63.10
2019-05-07T20:02:43.115Z,63.50
2019-05-07T20:05:12.206Z,64.00
2019-05-07T20:07:42.321Z,63.50
2019-05-07T20:10:12.933Z,63.00
2019-05-07T20:12:42.850Z,63.30
2019-05-07T20:15:12.191Z,64.80
2019-05-07T20:17:41.961Z,64.00
2019-05-07T20:20:12.546Z,65.70
2019-05-07T20:22:41.056Z,64.70
2019-05-07T20:25:18.106Z,66.30
2019-05-07T20:27:41.853Z,66.30
2019-05-07T20:30:12.152Z,65.30
2019-05-07T20:32:42.819Z,65.70
2019-05-07T20:35:11.678Z,65.90
2019-05-07T20:37:41.945Z,66.10
2019-05-07T20:40:15.757Z,66.40
2019-05-07T20:42:44.426Z,67.00
2019-05-07T20:45:13.282Z,65.90
2019-05-07T20:47:42.232Z,67.10
2019-05-07T20:50:12.769Z,66.60
2019-05-07T20:52:41.890Z,67.60
2019-05-07T20:55:30.844Z,67.30
2019-05-07T20:58:03.191Z,67.30
2019-05-07T21:00:32.562Z,67.70
2019-05-07T21:03:19.391Z,68.30
2019-05-07T21:05:52.837Z,68.90
2019-05-07T21:08:22.805Z,68.20
2019-05-07T21:10:53.540Z,69.40
2019-05-07T21:13:32.398Z,68.90
2019-05-07T21:15:52.889Z,69.50
2019-05-07T21:18:23.210Z,69.40
2019-05-07T21:20:52.894Z,69.50
2019-05-07T21:23:23.061Z,69.60
2019-05-07T21:25:52.766Z,68.80
2019-05-07T21:28:21.864Z,70.40
2019-05-07T21:30:52.151Z,70.40
2019-05-07T21:33:22.889Z,70.40
2019-05-07T21:35:52.317Z,69.10
2019-05-07T21:38:22.342Z,68.80
2019-05-07T21:40:51.323Z,70.10
2019-05-07T21:43:22.281Z,70.20
2019-05-07T21:45:50.222Z,70.40
2019-05-07T21:48:18.981Z,70.90
2019-05-07T21:50:47.724Z,70.10
2019-05-07T21:53:35.924Z,70.80
2019-05-07T21:56:22.793Z,71.00
2019-05-07T21:58:54.125Z,70.50
2019-05-07T22:01:43.580Z,71.90
2019-05-07T22:04:13.273Z,70.60
2019-05-07T22:06:42.910Z,70.00
2019-05-07T22:09:13.359Z,68.60
2019-05-07T22:11:43.663Z,68.70
2019-05-07T22:14:13.062Z,68.40
2019-05-07T22:16:42.382Z,68.60
2019-05-07T22:19:12.178Z,70.40
2019-05-07T22:21:43.276Z,70.60
2019-05-07T22:24:12.992Z,70.40
2019-05-07T22:26:42.127Z,70.20
2019-05-07T22:29:12.561Z,70.40
2019-05-07T22:31:49.079Z,71.20
2019-05-07T22:34:19.493Z,71.40
2019-05-07T22:36:48.245Z,71.50
2019-05-07T22:39:16.930Z,71.90
2019-05-07T22:41:45.740Z,71.40
2019-05-07T22:44:14.382Z,71.90
2019-05-07T22:46:43.055Z,72.30
2019-05-07T22:49:14.201Z,71.70
2019-05-07T22:51:43.057Z,73.20
2019-05-07T22:54:12.351Z,72.40
2019-05-07T22:56:57.987Z,72.00
2019-05-07T22:59:26.805Z,72.10
2019-05-07T23:01:55.848Z,72.00
2019-05-07T23:04:24.615Z,72.50
2019-05-07T23:06:54.379Z,72.20
2019-05-07T23:09:23.155Z,72.50
2019-05-07T23:11:52.722Z,73.50
2019-05-07T23:14:22.823Z,72.90
2019-05-07T23:16:52.594Z,72.90
2019-05-07T23:19:22.202Z,74.50
2019-05-07T23:21:52.108Z,73.40
2019-05-07T23:24:22.721Z,73.60
2019-05-07T23:26:53.659Z,72.80
2019-05-07T23:29:22.595Z,73.90
2019-05-07T23:31:52.977Z,73.80
2019-05-07T23:34:22.172Z,73.00
2019-05-07T23:36:53.306Z,73.80
2019-05-07T23:39:23.156Z,74.40
2019-05-07T23:42:02.513Z,74.40
2019-05-07T23:44:31.121Z,74.40
2019-05-07T23:46:59.869Z,75.20
2019-05-07T23:49:28.782Z,74.30
2019-05-07T23:51:57.489Z,74.10
2019-05-07T23:54:26.276Z,73.60
2019-05-07T23:57:05.971Z,74.00
2019-05-07T23:59:25.244Z,74.20
